createdAt,value
2022-07-30T00:00:25.212Z,1.58
2022-07-30T00:02:53.288Z,1.55
2022-07-30T00:05:20.923Z,1.48
2022-07-30T00:07:48.376Z,1.60
2022-07-30T00:10:15.718Z,2.00
2022-07-30T00:12:42.966Z,1.60
2022-07-30T00:15:10.522Z,2.20
2022-07-30T00:17:37.619Z,1.88
2022-07-30T00:20:05.340Z,2.03
2022-07-30T00:22:32.496Z,1.80
2022-07-30T00:24:59.741Z,1.88
2022-07-30T00:27:26.853Z,1.70
2022-07-30T00:29:54.030Z,1.98
2022-07-30T00:32:21.156Z,1.85
2022-07-30T00:34:48.236Z,1.73
2022-07-30T00:37:15.431Z,1.50
2022-07-30T00:39:43.514Z,1.70
2022-07-30T00:42:10.888Z,1.60
2022-07-30T00:44:40.974Z,1.65
2022-07-30T00:47:08.443Z,1.83
2022-07-30T00:49:35.608Z,1.73
2022-07-30T00:52:02.766Z,1.77
2022-07-30T00:54:29.875Z,1.27
2022-07-30T00:56:57.209Z,1.70
2022-07-30T00:59:24.444Z,1.88
2022-07-30T01:01:51.671Z,1.42
2022-07-30T01:04:19.051Z,2.03
2022-07-30T01:06:47.172Z,1.58
2022-07-30T01:09:14.271Z,1.70
2022-07-30T01:11:42.482Z,2.17
2022-07-30T01:14:10.791Z,1.83
2022-07-30T01:16:41.422Z,1.48
2022-07-30T01:19:38.652Z,1.80
2022-07-30T01:22:30.360Z,1.42
2022-07-30T01:25:03.687Z,1.80
2022-07-30T01:27:35.239Z,1.40
2022-07-30T01:30:05.594Z,1.60
2022-07-30T01:32:36.742Z,1.60
2022-07-30T01:35:05.950Z,1.20
2022-07-30T01:37:34.104Z,1.10
2022-07-30T01:40:02.111Z,1.60
2022-07-30T01:42:30.835Z,1.30
2022-07-30T01:44:59.119Z,1.75
2022-07-30T01:47:28.007Z,1.58
2022-07-30T01:49:57.326Z,1.13
2022-07-30T01:52:26.778Z,1.77
2022-07-30T01:54:56.255Z,1.23
2022-07-30T01:57:24.445Z,1.60
2022-07-30T01:59:59.371Z,1.42
2022-07-30T02:02:26.634Z,1.35
2022-07-30T02:04:54.205Z,1.30
2022-07-30T02:07:31.045Z,1.50
2022-07-30T02:10:09.239Z,2.08
2022-07-30T02:12:50.189Z,1.30
2022-07-30T02:15:35.112Z,1.52
2022-07-30T02:18:15.162Z,1.30
2022-07-30T02:20:46.285Z,1.20
2022-07-30T02:23:18.445Z,1.52
2022-07-30T02:25:50.456Z,1.67
2022-07-30T02:28:22.614Z,1.30
2022-07-30T02:30:56.780Z,1.60
2022-07-30T02:33:29.253Z,1.58
2022-07-30T02:36:00.281Z,1.63
2022-07-30T02:38:29.595Z,1.70
2022-07-30T02:40:59.246Z,2.03
2022-07-30T02:43:28.470Z,2.50
2022-07-30T02:46:04.907Z,2.08
2022-07-30T02:48:53.489Z,2.00
2022-07-30T02:51:22.202Z,2.15
2022-07-30T02:53:52.016Z,1.83
2022-07-30T02:56:21.272Z,2.08
2022-07-30T02:58:50.193Z,2.17
2022-07-30T03:01:19.375Z,1.45
2022-07-30T03:03:47.470Z,2.05
2022-07-30T03:06:16.167Z,2.00
2022-07-30T03:08:45.528Z,2.40
2022-07-30T03:11:14.022Z,2.10
2022-07-30T03:13:41.297Z,2.28
2022-07-30T03:16:12.032Z,1.92
2022-07-30T03:18:41.034Z,2.95
2022-07-30T03:21:10.957Z,2.53
2022-07-30T03:23:41.202Z,3.45
2022-07-30T03:26:09.641Z,3.65
2022-07-30T03:28:39.693Z,3.15
2022-07-30T03:31:08.605Z,3.15
2022-07-30T03:33:38.566Z,3.10
2022-07-30T03:36:07.596Z,3.08
2022-07-30T03:38:37.942Z,3.38
2022-07-30T03:41:07.798Z,3.47
2022-07-30T03:43:36.047Z,2.58
2022-07-30T03:46:06.151Z,3.10
2022-07-30T03:48:37.265Z,2.88
2022-07-30T03:51:07.477Z,3.60
2022-07-30T03:53:35.114Z,3.42
2022-07-30T03:56:28.570Z,3.88
2022-07-30T03:59:05.658Z,3.35
2022-07-30T04:01:35.061Z,3.95
2022-07-30T04:04:18.538Z,3.40
2022-07-30T04:06:45.739Z,3.78
2022-07-30T04:09:15.205Z,3.38
2022-07-30T04:11:43.557Z,3.97
2022-07-30T04:14:14.294Z,4.35
2022-07-30T04:17:04.850Z,4.47
2022-07-30T04:19:38.546Z,5.70
2022-07-30T04:22:08.068Z,6.43
2022-07-30T04:24:39.113Z,7.72
2022-07-30T04:27:06.768Z,7.75
2022-07-30T04:29:34.682Z,6.50
2022-07-30T04:32:02.436Z,4.80
2022-07-30T04:34:52.954Z,5.78
2022-07-30T04:37:42.605Z,7.60
2022-07-30T04:40:10.384Z,7.50
2022-07-30T04:42:37.599Z,10.05
2022-07-30T04:45:07.963Z,13.32
2022-07-30T04:47:54.013Z,10.32
2022-07-30T04:50:43.322Z,10.23
2022-07-30T04:55:48.734Z,13.30
2022-07-30T04:58:19.767Z,11.43
2022-07-30T05:00:48.202Z,12.40
2022-07-30T05:03:18.914Z,10.32
2022-07-30T05:05:56.772Z,10.95
2022-07-30T05:08:26.335Z,9.65
2022-07-30T05:10:54.479Z,9.80
2022-07-30T05:13:22.257Z,10.88
2022-07-30T05:15:50.017Z,11.27
2022-07-30T05:18:20.250Z,10.05
2022-07-30T05:20:47.464Z,10.70
2022-07-30T05:23:22.926Z,9.65
2022-07-30T05:26:00.088Z,9.75
2022-07-30T05:28:38.244Z,14.00
2022-07-30T05:31:11.471Z,11.30
2022-07-30T05:33:42.516Z,10.43
2022-07-30T05:36:15.480Z,9.40
2022-07-30T05:38:42.679Z,11.60
2022-07-30T05:41:32.658Z,11.95
2022-07-30T05:44:24.312Z,9.70
2022-07-30T05:46:52.517Z,9.30
2022-07-30T05:49:19.898Z,10.45
2022-07-30T05:51:47.381Z,10.40
2022-07-30T05:54:17.409Z,10.82
2022-07-30T05:56:44.585Z,10.43
2022-07-30T05:59:14.828Z,9.50
2022-07-30T06:02:01.928Z,11.27
2022-07-30T06:04:38.206Z,9.50
2022-07-30T06:07:13.426Z,9.50
2022-07-30T06:09:40.751Z,7.57
2022-07-30T06:12:09.127Z,7.93
2022-07-30T06:14:36.430Z,6.80
2022-07-30T06:17:05.880Z,6.95
2022-07-30T06:19:53.397Z,8.35
2022-07-30T06:22:26.127Z,8.23
2022-07-30T06:24:54.419Z,8.93
2022-07-30T06:27:31.249Z,9.27
2022-07-30T06:30:01.373Z,6.80
2022-07-30T06:32:28.805Z,6.32
2022-07-30T06:35:03.976Z,6.50
2022-07-30T06:38:06.330Z,6.53
2022-07-30T06:40:21.810Z,7.15
2022-07-30T06:43:07.239Z,7.20
2022-07-30T06:45:42.777Z,4.45
2022-07-30T06:48:25.015Z,6.60
2022-07-30T06:50:53.347Z,6.20
2022-07-30T06:53:20.529Z,7.85
2022-07-30T06:56:06.424Z,7.85
2022-07-30T06:58:43.139Z,6.13
2022-07-30T07:01:33.490Z,6.65
2022-07-30T07:04:01.614Z,7.13
2022-07-30T07:06:29.137Z,6.80
2022-07-30T07:08:56.421Z,6.47
2022-07-30T07:11:31.718Z,4.70
2022-07-30T07:14:04.744Z,4.97
2022-07-30T07:16:36.215Z,5.65
2022-07-30T07:20:01.425Z,4.93
2022-07-30T07:22:14.580Z,4.70
2022-07-30T07:24:44.223Z,4.50
2022-07-30T07:27:15.970Z,6.07
2022-07-30T07:30:00.968Z,3.88
2022-07-30T07:32:30.654Z,6.07
2022-07-30T07:34:58.003Z,4.13
2022-07-30T07:37:25.199Z,4.63
2022-07-30T07:39:52.410Z,4.30
2022-07-30T07:42:19.672Z,4.35
2022-07-30T07:44:49.020Z,4.20
2022-07-30T07:47:17.641Z,4.30
2022-07-30T07:49:56.312Z,4.70
2022-07-30T07:52:23.624Z,4.43
2022-07-30T07:54:50.941Z,3.42
2022-07-30T07:57:18.553Z,3.05
2022-07-30T07:59:47.690Z,2.72
2022-07-30T08:02:24.530Z,2.47
2022-07-30T08:05:08.134Z,3.17
2022-07-30T08:07:42.847Z,2.70
2022-07-30T08:10:11.374Z,3.00
2022-07-30T08:12:47.429Z,2.80
2022-07-30T08:15:33.610Z,3.13
2022-07-30T08:18:19.515Z,2.17
2022-07-30T08:21:10.505Z,2.28
2022-07-30T08:23:42.193Z,2.65
2022-07-30T08:26:09.801Z,2.95
2022-07-30T08:28:37.368Z,3.00
2022-07-30T08:31:07.316Z,2.53
2022-07-30T08:33:34.655Z,2.70
2022-07-30T08:36:09.106Z,2.97
2022-07-30T08:38:38.416Z,2.40
2022-07-30T08:41:06.633Z,2.30
2022-07-30T08:43:36.422Z,2.22
2022-07-30T08:46:08.895Z,1.60
2022-07-30T08:51:22.537Z,2.63
2022-07-30T08:54:08.741Z,2.70
2022-07-30T08:56:37.831Z,2.28
2022-07-30T08:59:07.704Z,2.30
2022-07-30T09:01:34.957Z,2.40
2022-07-30T09:04:02.216Z,2.58
2022-07-30T09:06:29.642Z,2.65
2022-07-30T09:08:56.902Z,2.35
2022-07-30T09:11:24.318Z,2.35
2022-07-30T09:13:51.769Z,2.40
2022-07-30T09:16:26.525Z,2.20
2022-07-30T09:18:57.134Z,2.10
2022-07-30T09:21:26.446Z,1.70
2022-07-30T09:24:13.970Z,1.88
2022-07-30T09:27:07.472Z,2.17
2022-07-30T09:30:00.020Z,2.33
2022-07-30T09:32:54.423Z,2.10
2022-07-30T09:35:33.806Z,1.80
2022-07-30T09:38:27.990Z,1.50
2022-07-30T09:41:36.265Z,1.30
2022-07-30T09:44:09.825Z,1.17
2022-07-30T09:46:45.559Z,1.45
2022-07-30T09:51:54.700Z,1.50
2022-07-30T09:54:52.716Z,1.48
2022-07-30T09:57:27.813Z,1.40
2022-07-30T10:00:25.087Z,1.75
2022-07-30T10:03:21.568Z,1.50
2022-07-30T10:06:38.365Z,1.63
2022-07-30T10:09:37.089Z,1.67
2022-07-30T10:12:10.706Z,1.85
2022-07-30T10:14:44.229Z,2.03
2022-07-30T10:17:13.942Z,1.13
2022-07-30T10:19:47.174Z,1.38
2022-07-30T10:22:35.946Z,1.55
2022-07-30T10:25:27.833Z,1.83
2022-07-30T10:28:15.680Z,1.67
2022-07-30T10:30:45.523Z,1.45
2022-07-30T10:33:36.525Z,1.15
2022-07-30T10:36:02.650Z,1.60
2022-07-30T10:38:41.639Z,1.73
2022-07-30T10:41:48.040Z,1.63
2022-07-30T10:44:24.824Z,2.33
2022-07-30T10:46:52.003Z,1.52
2022-07-30T10:49:19.700Z,1.73
2022-07-30T10:51:49.558Z,1.98
2022-07-30T10:54:39.274Z,1.50
2022-07-30T10:57:22.525Z,1.58
2022-07-30T10:59:50.595Z,1.90
2022-07-30T11:02:19.890Z,1.67
2022-07-30T11:04:47.796Z,2.17
2022-07-30T11:07:24.050Z,1.90
2022-07-30T11:10:05.098Z,1.92
2022-07-30T11:12:42.130Z,1.90
2022-07-30T11:15:19.260Z,1.73
2022-07-30T11:18:11.461Z,2.10
2022-07-30T11:20:41.018Z,2.55
2022-07-30T11:23:35.593Z,1.83
2022-07-30T11:26:03.048Z,1.85
2022-07-30T11:28:45.813Z,1.52
2022-07-30T11:31:36.828Z,1.67
2022-07-30T11:34:26.159Z,2.10
2022-07-30T11:37:21.808Z,1.88
2022-07-30T11:40:01.929Z,1.45
2022-07-30T11:42:37.127Z,1.65
2022-07-30T11:45:16.759Z,1.60
2022-07-30T11:47:45.488Z,1.80
2022-07-30T11:50:27.346Z,1.73
2022-07-30T11:53:00.311Z,1.23
2022-07-30T11:55:39.029Z,1.58
2022-07-30T11:58:11.391Z,0.95
2022-07-30T12:00:41.188Z,1.27
2022-07-30T12:03:11.512Z,1.20
2022-07-30T12:05:39.866Z,1.20
2022-07-30T12:08:07.554Z,1.45
2022-07-30T12:10:39.403Z,1.02
2022-07-30T12:13:14.619Z,1.48
2022-07-30T12:15:44.061Z,1.30
2022-07-30T12:18:26.306Z,1.40
2022-07-30T12:20:59.483Z,1.55
2022-07-30T12:23:27.867Z,1.10
2022-07-30T12:25:55.885Z,1.20
2022-07-30T12:28:28.725Z,1.00
2022-07-30T12:30:57.504Z,1.33
2022-07-30T12:33:25.464Z,1.35
2022-07-30T12:35:58.286Z,1.10
2022-07-30T12:38:27.428Z,1.10
2022-07-30T12:40:57.751Z,1.02
2022-07-30T12:43:49.649Z,1.45
2022-07-30T12:46:23.284Z,1.30
2022-07-30T12:48:55.659Z,1.23
2022-07-30T12:51:25.321Z,0.93
2022-07-30T12:53:54.153Z,1.15
2022-07-30T12:56:26.806Z,1.25
2022-07-30T12:58:56.951Z,1.30
2022-07-30T13:01:44.351Z,1.27
2022-07-30T13:04:13.585Z,0.90
2022-07-30T13:06:42.096Z,1.15
2022-07-30T13:09:20.841Z,1.73
2022-07-30T13:11:49.139Z,1.10
2022-07-30T13:14:17.376Z,1.35
2022-07-30T13:16:45.826Z,1.38
2022-07-30T13:19:13.647Z,1.88
2022-07-30T13:21:49.931Z,1.60
2022-07-30T13:24:18.661Z,1.10
2022-07-30T13:26:46.297Z,1.40
2022-07-30T13:29:13.951Z,1.30
2022-07-30T13:31:42.801Z,1.00
2022-07-30T13:34:11.992Z,1.42
2022-07-30T13:36:39.598Z,1.10
2022-07-30T13:39:06.762Z,1.20
2022-07-30T13:41:36.154Z,1.40
2022-07-30T13:44:04.122Z,1.42
2022-07-30T13:46:31.262Z,1.40
2022-07-30T13:48:58.598Z,1.10
2022-07-30T13:51:25.977Z,1.38
2022-07-30T13:53:53.380Z,1.75
2022-07-30T13:56:21.672Z,1.20
2022-07-30T13:58:49.021Z,1.33
2022-07-30T14:01:18.015Z,1.15
2022-07-30T14:03:50.040Z,1.10
2022-07-30T14:06:19.430Z,1.35
2022-07-30T14:08:46.837Z,1.35
2022-07-30T14:11:14.124Z,0.80
2022-07-30T14:13:41.962Z,1.40
2022-07-30T14:16:28.559Z,1.30
2022-07-30T14:18:57.635Z,0.95
2022-07-30T14:21:25.333Z,1.02
2022-07-30T14:23:52.568Z,1.13
2022-07-30T14:26:19.791Z,0.90
2022-07-30T14:28:47.189Z,1.27
2022-07-30T14:31:14.452Z,1.23
2022-07-30T14:33:42.016Z,1.40
2022-07-30T14:36:10.246Z,1.30
2022-07-30T14:38:39.867Z,1.38
2022-07-30T14:41:08.929Z,0.90
2022-07-30T14:43:36.225Z,1.52
2022-07-30T14:46:03.470Z,1.35
2022-07-30T14:48:30.592Z,1.02
2022-07-30T14:51:14.384Z,1.05
2022-07-30T14:53:47.279Z,0.77
2022-07-30T14:56:14.926Z,1.10
2022-07-30T14:58:45.369Z,0.95
2022-07-30T15:01:16.697Z,1.10
2022-07-30T15:03:45.677Z,0.80
2022-07-30T15:06:15.182Z,1.02
2022-07-30T15:08:43.216Z,1.00
2022-07-30T15:11:10.399Z,1.15
2022-07-30T15:13:38.632Z,1.02
2022-07-30T15:16:16.993Z,0.70
2022-07-30T15:18:44.944Z,0.80
2022-07-30T15:21:14.886Z,0.70
2022-07-30T15:23:42.038Z,0.80
2022-07-30T15:26:09.189Z,0.75
2022-07-30T15:28:36.417Z,0.73
2022-07-30T15:31:03.789Z,0.50
2022-07-30T15:33:31.100Z,0.60
2022-07-30T15:36:03.645Z,0.60
2022-07-30T15:38:30.897Z,0.75
2022-07-30T15:40:58.103Z,0.70
2022-07-30T15:43:25.256Z,0.70
2022-07-30T15:45:56.300Z,0.55
2022-07-30T15:48:27.088Z,0.63
2022-07-30T15:51:01.982Z,0.68
2022-07-30T15:53:31.120Z,0.65
2022-07-30T15:55:59.602Z,1.02
2022-07-30T15:58:27.003Z,0.70
2022-07-30T16:00:54.179Z,0.80
2022-07-30T16:03:21.431Z,0.80
2022-07-30T16:05:51.509Z,0.55
2022-07-30T16:08:21.165Z,0.50
2022-07-30T16:10:48.859Z,6.50
2022-07-30T16:13:16.283Z,1.27
2022-07-30T16:15:43.999Z,0.70
2022-07-30T16:18:11.271Z,0.70
2022-07-30T16:20:38.391Z,0.55
2022-07-30T16:23:10.417Z,0.50
2022-07-30T16:25:39.867Z,0.70
2022-07-30T16:28:07.079Z,0.63
2022-07-30T16:30:34.250Z,0.30
2022-07-30T16:33:01.749Z,0.98
2022-07-30T16:35:28.936Z,0.60
2022-07-30T16:37:57.977Z,0.70
2022-07-30T16:40:25.267Z,0.43
2022-07-30T16:42:53.054Z,0.50
2022-07-30T16:45:20.177Z,0.50
2022-07-30T16:47:48.806Z,0.57
2022-07-30T16:50:16.239Z,0.73
2022-07-30T16:52:43.361Z,0.50
2022-07-30T16:55:10.669Z,0.57
2022-07-30T16:57:37.972Z,0.60
2022-07-30T17:00:07.213Z,0.75
2022-07-30T17:02:34.682Z,0.80
2022-07-30T17:05:01.940Z,0.82
2022-07-30T17:07:29.257Z,0.77
2022-07-30T17:09:56.351Z,0.85
2022-07-30T17:12:27.119Z,1.25
2022-07-30T17:14:55.083Z,1.40
2022-07-30T17:17:22.410Z,1.70
2022-07-30T17:19:49.666Z,0.70
2022-07-30T17:22:16.957Z,0.80
2022-07-30T17:24:44.063Z,0.60
2022-07-30T17:27:11.206Z,0.85
2022-07-30T17:29:50.634Z,1.25
2022-07-30T17:32:19.746Z,0.60
2022-07-30T17:34:48.119Z,0.70
2022-07-30T17:37:20.525Z,1.05
2022-07-30T17:40:24.675Z,1.00
2022-07-30T17:42:39.678Z,0.70
2022-07-30T17:45:08.103Z,0.93
2022-07-30T17:47:35.345Z,0.73
2022-07-30T17:50:03.068Z,0.70
2022-07-30T17:52:30.433Z,0.70
2022-07-30T17:54:57.624Z,0.80
2022-07-30T17:57:25.176Z,0.80
2022-07-30T17:59:52.391Z,0.70
2022-07-30T18:02:24.041Z,0.85
2022-07-30T18:04:56.624Z,1.20
2022-07-30T18:07:23.923Z,1.00
2022-07-30T18:09:51.129Z,1.05
2022-07-30T18:12:18.342Z,0.93
2022-07-30T18:14:45.545Z,1.10
2022-07-30T18:17:14.517Z,0.80
2022-07-30T18:19:42.133Z,1.08
2022-07-30T18:22:09.810Z,1.60
2022-07-30T18:24:40.064Z,1.33
2022-07-30T18:27:07.926Z,1.23
2022-07-30T18:29:35.156Z,1.65
2022-07-30T18:32:02.554Z,1.48
2022-07-30T18:34:29.927Z,1.60
2022-07-30T18:36:57.106Z,1.48
2022-07-30T18:39:24.336Z,1.50
2022-07-30T18:41:51.674Z,1.90
2022-07-30T18:44:19.050Z,1.20
2022-07-30T18:46:49.473Z,1.52
2022-07-30T18:49:35.597Z,1.75
2022-07-30T18:52:04.602Z,1.60
2022-07-30T18:54:32.119Z,1.52
2022-07-30T18:56:59.369Z,1.45
2022-07-30T18:59:26.583Z,1.20
2022-07-30T19:01:53.930Z,1.50
2022-07-30T19:04:21.215Z,1.35
2022-07-30T19:06:48.636Z,1.48
2022-07-30T19:09:17.997Z,1.30
2022-07-30T19:11:49.591Z,1.38
2022-07-30T19:14:16.915Z,1.48
2022-07-30T19:16:44.699Z,1.48
2022-07-30T19:19:13.653Z,1.05
2022-07-30T19:21:41.352Z,1.77
2022-07-30T19:24:09.939Z,1.63
2022-07-30T19:26:39.768Z,2.25
2022-07-30T19:29:08.097Z,1.70
2022-07-30T19:31:35.807Z,1.40
2022-07-30T19:34:06.123Z,1.40
2022-07-30T19:36:33.656Z,1.55
2022-07-30T19:39:07.456Z,1.42
2022-07-30T19:41:41.654Z,1.40
2022-07-30T19:44:10.505Z,1.85
2022-07-30T19:46:38.191Z,1.58
2022-07-30T19:49:06.895Z,1.60
2022-07-30T19:52:10.647Z,1.60
2022-07-30T19:54:21.661Z,4.68
2022-07-30T19:56:48.928Z,2.05
2022-07-30T19:59:16.216Z,1.98
2022-07-30T20:01:44.288Z,1.48
2022-07-30T20:04:15.092Z,3.20
2022-07-30T20:06:46.129Z,2.13
2022-07-30T20:09:16.462Z,1.52
2022-07-30T20:11:44.237Z,1.60
2022-07-30T20:14:11.349Z,2.45
2022-07-30T20:16:43.838Z,1.70
2022-07-30T20:22:02.450Z,1.88
2022-07-30T20:24:29.639Z,1.50
2022-07-30T20:26:57.681Z,1.77
2022-07-30T20:29:24.811Z,2.30
2022-07-30T20:31:52.084Z,2.40
2022-07-30T20:34:25.726Z,1.70
2022-07-30T20:36:53.830Z,2.00
2022-07-30T20:39:21.497Z,2.30
2022-07-30T20:41:48.612Z,2.72
2022-07-30T20:44:23.359Z,2.38
2022-07-30T20:46:52.631Z,2.10
2022-07-30T20:49:24.158Z,1.92
2022-07-30T20:52:01.775Z,2.10
2022-07-30T20:54:30.458Z,2.47
2022-07-30T20:56:57.890Z,1.95
2022-07-30T20:59:26.952Z,2.60
2022-07-30T21:01:59.861Z,2.72
2022-07-30T21:04:27.152Z,2.47
2022-07-30T21:06:54.297Z,2.22
2022-07-30T21:09:21.449Z,2.22
2022-07-30T21:11:50.340Z,2.30
2022-07-30T21:14:18.609Z,2.17
2022-07-30T21:16:46.969Z,2.00
2022-07-30T21:19:16.546Z,2.17
2022-07-30T21:21:48.688Z,2.17
2022-07-30T21:24:19.706Z,2.97
2022-07-30T21:26:49.013Z,2.40
2022-07-30T21:29:17.219Z,2.30
2022-07-30T21:32:01.818Z,2.20
2022-07-30T21:34:40.384Z,1.80
2022-07-30T21:37:09.640Z,1.50
2022-07-30T21:39:40.049Z,1.70
2022-07-30T21:42:08.960Z,1.80
2022-07-30T21:44:37.686Z,1.35
2022-07-30T21:47:09.963Z,1.95
2022-07-30T21:49:38.753Z,1.88
2022-07-30T21:52:08.494Z,1.65
2022-07-30T21:54:48.330Z,1.75
2022-07-30T21:57:26.275Z,1.83
2022-07-30T21:59:55.115Z,1.75
2022-07-30T22:02:26.108Z,1.70
2022-07-30T22:04:55.201Z,1.60
2022-07-30T22:07:22.490Z,1.40
2022-07-30T22:09:49.796Z,1.48
2022-07-30T22:12:18.103Z,1.67
2022-07-30T22:14:49.392Z,2.28
2022-07-30T22:17:23.291Z,1.63
2022-07-30T22:19:51.895Z,2.20
2022-07-30T22:22:27.333Z,1.63
2022-07-30T22:24:58.336Z,1.83
2022-07-30T22:27:28.205Z,2.42
2022-07-30T22:30:13.714Z,2.35
2022-07-30T22:32:41.405Z,1.65
2022-07-30T22:35:10.285Z,2.00
2022-07-30T22:37:38.355Z,1.42
2022-07-30T22:40:07.089Z,1.85
2022-07-30T22:42:36.542Z,1.48
2022-07-30T22:48:10.809Z,1.98
2022-07-30T22:50:40.180Z,2.22
2022-07-30T22:54:03.563Z,2.72
2022-07-30T22:55:55.730Z,2.38
2022-07-30T22:58:26.170Z,1.55
2022-07-30T23:00:54.474Z,2.40
2022-07-30T23:03:21.607Z,2.00
2022-07-30T23:05:56.482Z,2.08
2022-07-30T23:08:29.379Z,1.90
2022-07-30T23:10:59.848Z,1.95
2022-07-30T23:12:17.497Z,1.60
2022-07-30T23:13:28.614Z,2.30
2022-07-30T23:15:56.166Z,2.80
2022-07-30T23:18:23.843Z,2.85
2022-07-30T23:20:50.922Z,2.20
2022-07-30T23:23:18.099Z,2.22
2022-07-30T23:25:45.329Z,2.38
2022-07-30T23:28:12.631Z,2.95
2022-07-30T23:30:39.739Z,2.35
2022-07-30T23:33:06.829Z,1.85
2022-07-30T23:35:33.970Z,2.03
2022-07-30T23:38:01.128Z,2.40
2022-07-30T23:40:28.473Z,1.85
2022-07-30T23:42:55.993Z,1.95
2022-07-30T23:45:23.107Z,1.85
2022-07-30T23:47:56.595Z,2.50
2022-07-30T23:50:33.604Z,1.90
2022-07-30T23:53:02.028Z,2.00
2022-07-30T23:55:30.059Z,1.98
2022-07-30T23:57:58.151Z,2.78
